Time;durP1;ratioP1;P1;durP2;ratioP2;P2;SDS_P1;SDS_P2;PMS_P1;PMS_P2;Temp;Humidity;BMP_temperature;BMP_pressure;BME280_temperature;BME280_humidity;BME280_pressure;Samples;Min_cycle;Max_cycle;Signal;HPM_P1;HPM_P2
2023/01/27 00:00:42;;;;;;;25.02;22.33;;;;;;;-1.71;83.71;95558.13;5089340;28;20028;-61
2023/01/27 00:03:11;;;;;;;20.48;18.38;;;;;;;-1.60;82.38;95554.16;5098792;28;20020;-68
2023/01/27 00:05:37;;;;;;;20.00;17.90;;;;;;;-1.64;82.16;95557.78;5090194;28;20801;-62
2023/01/27 00:08:02;;;;;;;22.40;19.27;;;;;;;-1.77;82.52;95556.66;5090667;28;20036;-60
2023/01/27 00:10:28;;;;;;;22.55;19.30;;;;;;;-1.75;82.46;95554.88;5098691;28;20023;-61
2023/01/27 00:15:37;;;;;;;26.17;20.20;;;;;;;-1.85;83.18;95557.03;5088762;28;20039;-61
2023/01/27 00:18:02;;;;;;;24.13;18.73;;;;;;;-1.88;83.15;95555.44;5089591;28;20032;-61
2023/01/27 00:26:07;;;;;;;36.28;28.60;;;;;;;-1.90;83.32;95561.56;5088909;28;20123;-72
2023/01/27 00:28:36;;;;;;;23.60;20.77;;;;;;;-1.96;84.04;95562.69;5088680;28;20016;-70
2023/01/27 00:31:03;;;;;;;20.40;18.20;;;;;;;-1.78;83.83;95555.84;5088589;28;20028;-70
2023/01/27 00:33:29;;;;;;;21.10;18.05;;;;;;;-1.75;82.56;95560.03;5088981;28;20055;-71
2023/01/27 00:36:06;;;;;;;19.10;17.13;;;;;;;-1.86;83.92;95565.69;5088661;28;20035;-71
2023/01/27 00:38:39;;;;;;;20.08;18.05;;;;;;;-1.75;83.04;95557.47;5079571;28;20048;-70
2023/01/27 00:41:18;;;;;;;32.75;18.80;;;;;;;-1.74;82.59;95565.13;5093862;28;20063;-70
2023/01/27 00:43:48;;;;;;;19.77;17.63;;;;;;;-1.87;83.38;95558.84;5089505;28;20093;-62
2023/01/27 00:46:14;;;;;;;19.08;17.08;;;;;;;-1.90;83.33;95558.97;5088098;28;20044;-62
2023/01/27 00:48:39;;;;;;;22.88;19.30;;;;;;;-1.93;83.74;95559.97;5083213;28;20032;-62
2023/01/27 00:51:05;;;;;;;19.58;17.45;;;;;;;-1.85;82.05;95557.03;5084645;28;20028;-62
2023/01/27 00:53:31;;;;;;;18.83;16.85;;;;;;;-1.94;82.13;95554.84;5084060;28;20500;-62
2023/01/27 00:55:59;;;;;;;17.95;16.05;;;;;;;-1.87;81.87;95558.84;5080016;28;20106;-65
2023/01/27 00:58:25;;;;;;;21.80;18.27;;;;;;;-1.76;81.59;95554.03;5077741;28;20035;-62
2023/01/27 01:00:59;;;;;;;18.23;16.33;;;;;;;-1.67;81.27;95549.34;5084501;28;20035;-61
2023/01/27 01:03:31;;;;;;;17.17;15.43;;;;;;;-1.79;81.81;95543.84;5080264;28;20102;-68
2023/01/27 01:05:58;;;;;;;18.80;16.80;;;;;;;-1.82;82.43;95540.56;5080930;28;20571;-61
2023/01/27 01:08:24;;;;;;;17.85;16.02;;;;;;;-1.78;82.21;95536.94;5084971;28;20447;-61
2023/01/27 01:10:50;;;;;;;17.98;16.13;;;;;;;-1.80;81.60;95544.75;5078549;28;20025;-61
2023/01/27 01:13:15;;;;;;;21.42;17.42;;;;;;;-1.80;81.38;95539.59;5082310;28;20066;-61
2023/01/27 01:15:41;;;;;;;20.52;17.42;;;;;;;-1.83;81.33;95532.00;5082700;28;20028;-61
2023/01/27 01:18:08;;;;;;;19.55;17.45;;;;;;;-1.92;81.69;95540.13;5082425;28;20054;-61
2023/01/27 01:20:38;;;;;;;20.35;18.20;;;;;;;-1.99;81.11;95538.75;5078555;28;20028;-64
2023/01/27 01:23:05;;;;;;;22.02;19.23;;;;;;;-2.00;81.92;95537.09;5087265;28;20471;-62
2023/01/27 01:25:30;;;;;;;22.33;19.92;;;;;;;-1.81;80.84;95532.75;5080261;28;20032;-62
2023/01/27 01:27:56;;;;;;;18.70;16.67;;;;;;;-1.86;80.70;95529.56;5085092;28;20028;-62
2023/01/27 01:30:24;;;;;;;16.92;15.23;;;;;;;-1.89;81.02;95527.09;5086358;28;20399;-62
2023/01/27 01:32:50;;;;;;;17.27;15.52;;;;;;;-1.82;79.38;95533.66;5081046;28;20505;-61
2023/01/27 01:35:16;;;;;;;20.58;15.90;;;;;;;-1.92;79.70;95529.81;5077017;28;20078;-62
2023/01/27 01:37:41;;;;;;;18.92;16.23;;;;;;;-1.99;80.40;95528.44;5085625;28;20089;-62
2023/01/27 01:40:07;;;;;;;17.55;15.82;;;;;;;-2.06;81.29;95525.28;5081172;28;20032;-68
2023/01/27 01:42:51;;;;;;;19.35;17.35;;;;;;;-2.00;80.76;95524.19;5077493;28;20396;-68
2023/01/27 01:45:32;;;;;;;18.90;15.90;;;;;;;-2.03;80.84;95526.00;5079030;28;20028;-61
2023/01/27 01:48:02;;;;;;;16.95;14.43;;;;;;;-2.12;80.63;95521.22;5090372;28;20036;-61
2023/01/27 01:50:28;;;;;;;18.30;16.23;;;;;;;-2.01;79.40;95525.91;5081770;28;20383;-62
2023/01/27 01:52:54;;;;;;;17.13;15.05;;;;;;;-2.05;79.90;95520.06;5072631;28;20522;-61
2023/01/27 01:55:22;;;;;;;19.58;14.55;;;;;;;-2.12;80.55;95521.22;5086999;28;20028;-61
2023/01/27 01:57:48;;;;;;;19.00;14.73;;;;;;;-2.13;80.37;95524.72;5078520;28;20055;-61
2023/01/27 02:00:14;;;;;;;16.13;14.32;;;;;;;-2.09;80.61;95518.53;5081441;28;20056;-68
2023/01/27 02:02:40;;;;;;;17.83;15.30;;;;;;;-2.01;80.15;95515.59;5087706;28;20055;-61
2023/01/27 02:05:12;;;;;;;15.70;14.10;;;;;;;-2.09;79.67;95515.97;5087905;28;20103;-62
2023/01/27 02:07:56;;;;;;;17.70;14.68;;;;;;;-2.00;79.70;95516.44;5090177;28;20405;-62
2023/01/27 02:10:22;;;;;;;15.10;13.60;;;;;;;-2.07;79.61;95510.72;5084420;28;20440;-62
2023/01/27 02:12:47;;;;;;;16.30;14.77;;;;;;;-2.27;82.10;95509.84;5083538;28;20028;-62
2023/01/27 02:15:14;;;;;;;15.10;13.60;;;;;;;-2.33;82.38;95500.66;5085519;28;20035;-62
2023/01/27 02:17:39;;;;;;;15.90;14.30;;;;;;;-2.34;82.45;95504.13;5076064;28;20347;-62
2023/01/27 02:20:11;;;;;;;16.92;14.52;;;;;;;-2.40;83.13;95499.25;5085121;28;20035;-62
2023/01/27 02:22:52;;;;;;;16.38;14.50;;;;;;;-2.46;82.25;95502.09;5088754;28;20032;-69
2023/01/27 02:25:31;;;;;;;16.30;14.68;;;;;;;-2.46;82.85;95492.63;5082767;28;20023;-69
2023/01/27 02:27:56;;;;;;;16.90;15.20;;;;;;;-2.48;82.99;95496.19;5079931;28;20081;-68
2023/01/27 02:30:22;;;;;;;15.75;14.02;;;;;;;-2.47;83.13;95503.00;5076509;28;20032;-69
2023/01/27 02:32:47;;;;;;;16.65;15.05;;;;;;;-2.43;82.49;95490.81;5084681;28;20058;-69
2023/01/27 02:35:19;;;;;;;15.68;14.07;;;;;;;-2.43;83.49;95496.81;5077615;28;20534;-69
2023/01/27 02:37:46;;;;;;;16.33;14.55;;;;;;;-2.42;83.60;95490.75;5083848;28;20048;-69
2023/01/27 02:40:12;;;;;;;17.75;15.85;;;;;;;-2.38;85.14;95497.44;5082889;28;20032;-62
2023/01/27 02:42:38;;;;;;;17.38;15.57;;;;;;;-2.32;83.47;95492.03;5087580;28;20012;-68
2023/01/27 02:45:03;;;;;;;17.50;15.65;;;;;;;-2.35;83.09;95486.97;5082340;28;20020;-67
2023/01/27 02:47:29;;;;;;;32.00;23.08;;;;;;;-2.38;84.14;95487.13;5084226;28;20047;-67
2023/01/27 02:49:54;;;;;;;20.58;17.90;;;;;;;-2.38;83.95;95481.97;5082845;28;20972;-67
2023/01/27 02:52:22;;;;;;;42.55;26.42;;;;;;;-2.36;83.79;95485.31;5079125;28;20033;-67
2023/01/27 02:54:47;;;;;;;17.20;15.40;;;;;;;-2.37;84.00;95482.81;5082359;28;20016;-67
2023/01/27 02:57:13;;;;;;;30.05;20.48;;;;;;;-2.45;84.17;95486.56;5087305;28;20035;-61
2023/01/27 02:59:38;;;;;;;121.40;56.58;;;;;;;-2.42;85.24;95477.03;5083130;28;20103;-62
2023/01/27 03:02:03;;;;;;;21.20;16.42;;;;;;;-2.33;83.43;95481.78;5087306;28;20061;-62
2023/01/27 03:04:29;;;;;;;16.67;14.95;;;;;;;-2.28;83.31;95471.25;5085140;28;20106;-62
2023/01/27 03:06:54;;;;;;;26.17;19.48;;;;;;;-2.36;84.35;95469.84;5086585;28;20027;-62
2023/01/27 03:09:19;;;;;;;18.52;16.20;;;;;;;-2.21;84.23;95470.06;5084666;28;20497;-62
2023/01/27 03:19:56;;;;;;;18.25;16.35;;;;;;;-2.28;84.04;95463.53;5078881;28;20031;-69
2023/01/27 03:22:22;;;;;;;17.25;15.45;;;;;;;-2.21;84.08;95467.50;5083423;28;20091;-61
2023/01/27 03:24:47;;;;;;;19.60;17.17;;;;;;;-2.24;84.00;95472.78;5075664;28;20031;-61
2023/01/27 03:27:13;;;;;;;17.30;15.57;;;;;;;-2.13;82.88;95473.13;5076312;28;20103;-61
2023/01/27 03:29:56;;;;;;;18.85;16.80;;;;;;;-2.24;82.93;95475.38;5075124;28;20017;-61
2023/01/27 03:32:30;;;;;;;18.77;15.70;;;;;;;-2.18;83.07;95472.50;5078482;28;20016;-61
2023/01/27 03:35:00;;;;;;;24.52;18.92;;;;;;;-2.35;83.91;95471.50;5078852;28;20478;-61
2023/01/27 03:48:32;;;;;;;18.70;16.50;;;;;;;-2.36;84.71;95464.69;5084835;28;20038;-68
2023/01/27 03:50:58;;;;;;;17.13;15.13;;;;;;;-2.29;83.59;95464.44;5081146;28;20029;-68
2023/01/27 03:53:24;;;;;;;21.02;18.02;;;;;;;-2.45;85.32;95454.78;5076527;28;20023;-68
2023/01/27 03:55:49;;;;;;;27.00;24.10;;;;;;;-2.49;85.25;95463.56;5088262;28;20545;-67
2023/01/27 03:58:24;;;;;;;24.13;20.52;;;;;;;-2.46;86.42;95460.84;5084194;28;20078;-62
2023/01/27 04:00:53;;;;;;;19.90;17.77;;;;;;;-2.43;86.14;95452.97;5086534;28;20016;-62
2023/01/27 04:09:00;;;;;;;17.83;14.87;;;;;;;-2.24;83.67;95449.56;5083457;28;20490;-62
2023/01/27 04:14:12;;;;;;;20.73;17.65;;;;;;;-2.43;84.23;95452.13;5086808;28;20084;-62
2023/01/27 04:16:38;;;;;;;20.73;16.80;;;;;;;-2.38;84.40;95461.34;5085256;28;20035;-61
2023/01/27 04:19:05;;;;;;;18.42;16.50;;;;;;;-2.50;84.99;95455.00;5058133;28;20020;-61
2023/01/27 04:21:30;;;;;;;19.20;16.55;;;;;;;-2.51;85.51;95452.50;5080432;28;20077;-61
2023/01/27 04:23:55;;;;;;;17.95;16.05;;;;;;;-2.43;85.04;95460.72;5081194;28;20016;-60
2023/01/27 04:26:21;;;;;;;18.38;16.40;;;;;;;-2.51;85.68;95455.91;5086211;28;20017;-61
2023/01/27 04:28:48;;;;;;;18.35;16.48;;;;;;;-2.45;84.55;95459.94;5086996;28;20032;-61
2023/01/27 04:31:14;;;;;;;18.05;15.98;;;;;;;-2.40;84.01;95460.56;5086245;28;20401;-61
2023/01/27 04:33:40;;;;;;;18.73;16.48;;;;;;;-2.39;84.12;95458.84;5085862;28;20462;-61
2023/01/27 04:36:06;;;;;;;18.75;16.80;;;;;;;-2.27;83.44;95460.03;5078481;28;20094;-61
2023/01/27 04:38:31;;;;;;;17.20;14.90;;;;;;;-2.21;82.80;95458.03;5084978;28;20040;-61
2023/01/27 04:40:57;;;;;;;18.65;15.95;;;;;;;-2.32;82.96;95460.22;5085727;28;20052;-60
2023/01/27 04:43:22;;;;;;;18.02;16.17;;;;;;;-2.26;82.83;95459.13;5086987;28;20020;-61
2023/01/27 04:45:47;;;;;;;16.23;14.52;;;;;;;-2.40;82.70;95457.16;5084107;28;20978;-61
2023/01/27 04:48:13;;;;;;;17.15;15.35;;;;;;;-2.34;82.85;95459.47;5087716;28;20317;-61
2023/01/27 04:50:38;;;;;;;18.45;16.45;;;;;;;-2.36;83.00;95458.69;5084954;28;20016;-61
2023/01/27 04:53:03;;;;;;;17.77;15.52;;;;;;;-2.40;83.25;95457.16;5080462;28;20032;-61
2023/01/27 04:55:29;;;;;;;17.65;15.18;;;;;;;-2.42;84.16;95459.81;5083653;28;20110;-61
2023/01/27 04:57:54;;;;;;;17.40;15.60;;;;;;;-2.40;83.73;95457.16;5084697;28;20114;-64
2023/01/27 05:00:20;;;;;;;23.20;17.58;;;;;;;-2.46;83.47;95458.28;5075484;28;20028;-64
2023/01/27 05:02:45;;;;;;;19.98;17.98;;;;;;;-2.53;84.27;95451.72;5084613;28;20087;-64
2023/01/27 05:05:11;;;;;;;19.85;17.55;;;;;;;-2.45;84.64;95450.44;5056361;28;20024;-64
2023/01/27 05:07:37;;;;;;;17.80;16.00;;;;;;;-2.49;83.99;95450.69;5080241;28;20473;-64
2023/01/27 05:10:03;;;;;;;17.77;15.85;;;;;;;-2.46;83.66;95453.94;5081388;28;20092;-64
2023/01/27 05:12:28;;;;;;;19.38;17.15;;;;;;;-2.46;83.23;95453.94;5083010;28;20036;-62
2023/01/27 05:14:53;;;;;;;19.45;16.73;;;;;;;-2.50;84.22;95457.56;5084600;28;20024;-68
2023/01/27 05:17:19;;;;;;;19.77;16.58;;;;;;;-2.53;83.62;95459.47;5073436;28;20037;-60
2023/01/27 05:19:44;;;;;;;18.23;15.93;;;;;;;-2.42;82.91;95456.41;5086200;28;20020;-60
2023/01/27 05:22:10;;;;;;;19.42;17.52;;;;;;;-2.49;82.91;95453.25;5085706;28;20020;-59
2023/01/27 05:24:37;;;;;;;20.05;16.70;;;;;;;-2.54;83.55;95444.88;5089975;28;20103;-60
2023/01/27 05:27:02;;;;;;;20.27;17.55;;;;;;;-2.61;83.98;95447.72;5087860;28;20406;-60
2023/01/27 05:29:28;;;;;;;19.45;17.38;;;;;;;-2.53;84.61;95456.88;5090610;28;20028;-60
2023/01/27 05:31:53;;;;;;;19.90;17.55;;;;;;;-2.54;84.29;95450.03;5084342;28;20024;-60
2023/01/27 05:34:18;;;;;;;17.95;16.05;;;;;;;-2.45;82.96;95459.94;5089502;28;20016;-67
2023/01/27 05:36:44;;;;;;;19.65;17.65;;;;;;;-2.50;82.94;95457.56;5092303;28;20024;-68
2023/01/27 05:39:10;;;;;;;18.40;16.25;;;;;;;-2.41;83.03;95455.50;5086881;28;20052;-67
2023/01/27 05:41:36;;;;;;;19.88;16.00;;;;;;;-2.43;82.22;95465.88;5083646;28;20456;-67
2023/01/27 05:44:01;;;;;;;19.58;16.95;;;;;;;-2.53;82.65;95456.88;5085573;28;20024;-68
2023/01/27 05:46:30;;;;;;;18.55;16.58;;;;;;;-2.44;82.34;95456.47;5091988;28;20106;-67
2023/01/27 05:48:59;;;;;;;18.15;16.25;;;;;;;-2.55;82.65;95456.09;5089366;28;20489;-68
2023/01/27 05:51:27;;;;;;;21.17;18.27;;;;;;;-2.65;84.06;95459.09;5085185;28;20031;-67
2023/01/27 05:53:54;;;;;;;21.20;18.27;;;;;;;-2.49;83.27;95459.22;5089582;28;20109;-63
2023/01/27 05:56:20;;;;;;;18.73;16.00;;;;;;;-2.34;82.53;95459.47;5082540;28;20600;-66
2023/01/27 05:58:45;;;;;;;18.45;16.63;;;;;;;-2.45;82.31;95459.94;5090593;28;20179;-67
2023/01/27 06:01:19;;;;;;;18.55;16.55;;;;;;;-2.35;81.90;95461.19;5070463;28;20020;-67
2023/01/27 06:03:45;;;;;;;21.55;17.73;;;;;;;-2.54;82.15;95456.03;5087527;28;20141;-68
2023/01/27 06:06:14;;;;;;;21.42;18.27;;;;;;;-2.57;82.69;95455.31;5088555;28;20517;-68
2023/01/27 06:08:40;;;;;;;21.92;18.65;;;;;;;-2.66;82.66;95462.56;5083368;28;20019;-67
2023/01/27 06:11:06;;;;;;;21.35;17.55;;;;;;;-2.55;82.42;95453.50;5086625;28;20028;-60
2023/01/27 06:13:37;;;;;;;21.42;17.85;;;;;;;-2.69;82.58;95457.53;5092786;28;20020;-62
2023/01/27 06:16:05;;;;;;;19.52;17.15;;;;;;;-2.73;83.43;95458.59;5077585;28;20073;-60
2023/01/27 06:18:30;;;;;;;21.92;18.50;;;;;;;-2.73;83.54;95456.00;5085724;28;20387;-61
2023/01/27 06:20:57;;;;;;;18.88;16.80;;;;;;;-2.76;82.53;95464.69;5087244;28;20241;-60
2023/01/27 06:23:23;;;;;;;19.73;17.30;;;;;;;-2.76;83.44;95463.88;5086205;28;20474;-60
2023/01/27 06:25:49;;;;;;;21.40;15.93;;;;;;;-2.79;83.95;95461.41;5089766;28;20024;-60
2023/01/27 06:28:15;;;;;;;18.83;16.35;;;;;;;-2.75;84.07;95458.66;5082172;28;20036;-61
2023/01/27 06:30:41;;;;;;;19.13;17.10;;;;;;;-2.79;83.25;95464.84;5081388;28;20627;-61
2023/01/27 06:33:07;;;;;;;20.10;17.33;;;;;;;-2.78;83.16;95463.94;5090991;28;20012;-62
2023/01/27 06:35:35;;;;;;;19.90;17.17;;;;;;;-2.73;82.95;95471.47;5090837;28;20089;-63
2023/01/27 06:38:02;;;;;;;20.05;17.15;;;;;;;-2.66;82.68;95464.28;5090650;28;20461;-62
2023/01/27 06:40:30;;;;;;;20.58;17.65;;;;;;;-2.54;81.62;95460.34;5089647;28;20536;-63
2023/01/27 06:42:55;;;;;;;19.15;16.83;;;;;;;-2.54;81.06;95465.50;5090759;28;20107;-62
2023/01/27 06:45:21;;;;;;;19.20;17.23;;;;;;;-2.46;79.90;95460.84;5090450;28;20112;-63
2023/01/27 06:47:57;;;;;;;20.30;17.67;;;;;;;-2.57;80.60;95461.31;5090150;28;20035;-63
2023/01/27 06:50:24;;;;;;;19.88;17.75;;;;;;;-2.46;80.08;95463.44;5089492;28;20551;-64
2023/01/27 06:52:50;;;;;;;19.35;17.30;;;;;;;-2.37;78.91;95468.16;5090903;28;20031;-61
2023/01/27 06:55:17;;;;;;;19.80;17.67;;;;;;;-2.42;79.95;95464.97;5090620;28;20051;-65
2023/01/27 06:57:45;;;;;;;21.48;18.73;;;;;;;-2.49;80.02;95464.41;5090453;28;20409;-64
2023/01/27 07:00:11;;;;;;;19.23;17.20;;;;;;;-2.52;79.29;95463.72;5089973;28;20043;-64
2023/01/27 07:02:36;;;;;;;21.80;17.35;;;;;;;-2.51;79.38;95466.22;5090098;28;20028;-64
2023/01/27 07:05:02;;;;;;;19.17;17.02;;;;;;;-2.48;79.49;95470.41;5090867;28;20048;-65
2023/01/27 07:07:27;;;;;;;18.63;16.50;;;;;;;-2.49;79.60;95479.03;5090981;28;20432;-65
2023/01/27 07:09:52;;;;;;;23.10;19.33;;;;;;;-2.56;80.16;95473.31;5090423;28;20064;-65
2023/01/27 07:12:18;;;;;;;21.73;17.55;;;;;;;-2.57;80.69;95479.38;5089178;28;20058;-68
2023/01/27 07:14:43;;;;;;;21.92;17.73;;;;;;;-2.63;81.24;95475.31;5092208;28;20055;-60
2023/01/27 07:17:08;;;;;;;26.92;21.70;;;;;;;-2.66;82.31;95480.59;5089634;28;20031;-60
2023/01/27 07:19:34;;;;;;;49.90;33.97;;;;;;;-2.64;82.11;95485.72;5089331;28;20039;-60
2023/01/27 07:21:59;;;;;;;45.38;35.20;;;;;;;-2.60;82.09;95482.09;5090957;28;20043;-60
2023/01/27 07:24:25;;;;;;;57.05;47.13;;;;;;;-2.66;81.96;95483.19;5090487;28;20020;-60
2023/01/27 07:26:50;;;;;;;22.63;19.17;;;;;;;-2.54;81.94;95481.81;5090529;28;20499;-60
2023/01/27 07:29:16;;;;;;;21.90;19.00;;;;;;;-2.46;81.06;95486.63;5090393;28;20020;-68
2023/01/27 07:31:41;;;;;;;25.48;20.80;;;;;;;-2.39;80.38;95490.59;5086489;28;20039;-64
2023/01/27 07:34:06;;;;;;;24.90;21.55;;;;;;;-2.38;80.44;95491.47;5083561;28;20058;-64
2023/01/27 07:39:53;;;;;;;25.88;20.90;;;;;;;-2.46;80.72;95490.03;5081048;28;20532;-63
2023/01/27 07:42:19;;;;;;;23.77;20.88;;;;;;;-2.41;80.77;95491.59;5087832;28;20040;-64
2023/01/27 07:44:44;;;;;;;28.98;24.60;;;;;;;-2.41;82.00;95489.03;5090375;28;20048;-64
2023/01/27 07:47:09;;;;;;;28.75;24.00;;;;;;;-2.41;82.40;95492.41;5086699;28;20106;-64
2023/01/27 07:49:35;;;;;;;28.48;21.17;;;;;;;-2.37;82.69;95488.78;5085868;28;20050;-65
2023/01/27 07:52:00;;;;;;;22.15;18.98;;;;;;;-2.34;82.50;95501.56;5070848;28;20047;-68
2023/01/27 07:54:26;;;;;;;22.88;18.58;;;;;;;-2.26;81.80;95490.06;5088662;28;20539;-68
2023/01/27 07:56:51;;;;;;;22.80;19.50;;;;;;;-2.32;82.24;95494.59;5085839;28;20066;-68
2023/01/27 07:59:16;;;;;;;23.77;19.45;;;;;;;-2.29;82.32;95498.78;5087546;28;20111;-68
2023/01/27 08:01:42;;;;;;;25.55;21.85;;;;;;;-2.37;83.05;95498.28;5089586;28;20047;-69
2023/01/27 08:04:07;;;;;;;27.88;23.65;;;;;;;-2.34;82.70;95493.81;5070032;28;20020;-68
2023/01/27 08:06:33;;;;;;;31.02;26.10;;;;;;;-2.34;83.24;95498.16;5089207;28;20024;-68
2023/01/27 08:08:59;;;;;;;27.48;24.10;;;;;;;-2.35;83.67;95497.31;5088852;28;20039;-60
2023/01/27 08:11:24;;;;;;;27.92;22.77;;;;;;;-2.28;83.51;95491.91;5088652;28;20056;-69
2023/01/27 08:13:50;;;;;;;26.23;22.40;;;;;;;-2.26;83.12;95498.63;5089198;28;20056;-68
2023/01/27 08:16:15;;;;;;;25.00;22.33;;;;;;;-2.29;83.27;95503.94;5086601;28;20036;-69
2023/01/27 08:18:41;;;;;;;29.45;25.30;;;;;;;-2.21;83.14;95498.44;5087610;28;20089;-69
2023/01/27 08:21:09;;;;;;;33.15;25.75;;;;;;;-2.25;83.91;95497.72;5087398;28;20114;-69
2023/01/27 08:23:35;;;;;;;42.80;30.90;;;;;;;-2.26;83.24;95498.63;5088711;28;20020;-69
2023/01/27 08:26:03;;;;;;;44.75;31.42;;;;;;;-2.10;82.75;95503.97;5088666;28;20132;-61
2023/01/27 08:28:30;;;;;;;36.75;28.45;;;;;;;-2.20;83.71;95494.94;5086139;28;20031;-60
2023/01/27 08:31:13;;;;;;;29.33;24.52;;;;;;;-2.23;84.16;95497.69;5087228;28;20358;-61
2023/01/27 08:33:40;;;;;;;25.02;22.33;;;;;;;-2.18;84.03;95494.00;5087230;28;20019;-62
2023/01/27 08:36:08;;;;;;;33.95;27.60;;;;;;;-2.12;84.33;95492.84;5087524;28;20564;-61
2023/01/27 08:38:33;;;;;;;34.97;28.52;;;;;;;-2.08;84.13;95489.25;5087873;28;20040;-61
2023/01/27 08:41:03;;;;;;;38.08;30.92;;;;;;;-2.05;83.87;95494.28;5088226;28;20035;-61
2023/01/27 08:43:29;;;;;;;32.15;28.65;;;;;;;-1.94;83.80;95490.34;5088461;28;20237;-61
2023/01/27 08:45:55;;;;;;;32.85;25.63;;;;;;;-2.00;84.35;95495.78;5088100;28;20028;-60
2023/01/27 08:48:21;;;;;;;32.40;26.23;;;;;;;-2.04;84.59;95495.94;5087188;28;20031;-65
2023/01/27 08:50:47;;;;;;;26.83;23.75;;;;;;;-2.01;84.87;95505.25;5087777;28;20036;-60
2023/01/27 08:53:12;;;;;;;27.48;22.45;;;;;;;-2.02;85.67;95504.44;5074269;28;20034;-62
2023/01/27 08:55:38;;;;;;;29.63;23.88;;;;;;;-1.99;85.61;95507.78;5092946;28;20035;-60
2023/01/27 08:58:03;;;;;;;34.13;26.48;;;;;;;-1.93;84.86;95507.50;5094668;28;20116;-61
2023/01/27 09:00:28;;;;;;;26.05;22.50;;;;;;;-1.95;84.30;95499.84;5091011;28;20035;-61
2023/01/27 09:02:54;;;;;;;24.85;22.25;;;;;;;-1.96;85.10;95503.34;5089645;28;20493;-61
2023/01/27 09:05:21;;;;;;;28.63;22.95;;;;;;;-1.90;83.92;95510.78;5091547;28;20028;-60
2023/01/27 09:07:46;;;;;;;30.60;27.42;;;;;;;-1.82;84.00;95510.44;5097124;28;20590;-66
2023/01/27 09:10:12;;;;;;;25.10;22.02;;;;;;;-1.82;83.64;95515.59;5090632;28;20051;-69
2023/01/27 09:12:38;;;;;;;25.48;21.83;;;;;;;-1.83;84.00;95513.94;5092318;28;20036;-69
2023/01/27 09:15:03;;;;;;;35.90;26.63;;;;;;;-1.80;83.43;95521.53;5091735;28;20402;-68
2023/01/27 09:17:29;;;;;;;29.90;23.10;;;;;;;-1.78;82.34;95513.69;5091731;28;20383;-68
2023/01/27 09:19:54;;;;;;;31.67;24.30;;;;;;;-1.80;82.16;95508.63;5092044;28;20036;-68
2023/01/27 09:22:19;;;;;;;25.80;21.88;;;;;;;-1.68;82.29;95512.38;5099782;28;20628;-69
2023/01/27 09:24:45;;;;;;;28.48;23.13;;;;;;;-1.61;81.64;95515.53;5099622;28;20016;-69
2023/01/27 09:27:10;;;;;;;28.95;24.02;;;;;;;-1.62;81.83;95512.09;5102023;28;20398;-62
2023/01/27 09:29:36;;;;;;;29.50;26.13;;;;;;;-1.65;81.57;95508.81;5065647;28;20608;-62
2023/01/27 09:32:02;;;;;;;31.25;27.92;;;;;;;-1.52;82.20;95511.66;5091862;28;20028;-61
2023/01/27 09:34:28;;;;;;;35.15;28.80;;;;;;;-1.52;82.00;95517.66;5098309;28;20027;-61
2023/01/27 09:37:00;;;;;;;33.58;28.85;;;;;;;-1.37;81.43;95515.25;5089786;28;20024;-61
2023/01/27 09:39:28;;;;;;;30.17;26.85;;;;;;;-1.48;82.40;95520.94;5090526;28;20048;-61
2023/01/27 09:41:53;;;;;;;31.42;26.52;;;;;;;-1.54;81.61;95514.31;5093800;28;20103;-61
2023/01/27 09:44:48;;;;;;;32.25;26.20;;;;;;;-1.45;82.02;95519.03;5091682;28;20098;-69
2023/01/27 09:47:50;;;;;;;35.70;26.08;;;;;;;-1.47;82.02;95517.44;5091686;28;20023;-63
2023/01/27 09:50:31;;;;;;;38.70;27.95;;;;;;;-1.46;81.60;95525.09;5091517;28;20056;-61
2023/01/27 09:53:18;;;;;;;35.60;29.23;;;;;;;-1.53;81.90;95520.31;5091538;28;20024;-61
2023/01/27 09:59:24;;;;;;;30.80;26.73;;;;;;;-1.38;81.86;95522.16;5089444;28;20054;-62
2023/01/27 10:02:20;;;;;;;33.13;27.27;;;;;;;-1.35;81.78;95527.19;5088796;28;20034;-62
2023/01/27 10:04:55;;;;;;;30.45;26.05;;;;;;;-1.25;81.95;95522.41;5088441;28;20020;-69
2023/01/27 10:07:38;;;;;;;32.65;27.63;;;;;;;-1.27;81.47;95516.47;5081279;28;20042;-61
2023/01/27 10:10:10;;;;;;;36.40;28.60;;;;;;;-1.27;81.14;95521.66;5085839;28;20024;-61
2023/01/27 10:12:50;;;;;;;35.70;28.98;;;;;;;-1.22;81.69;95514.50;5088761;28;20552;-61
2023/01/27 10:15:31;;;;;;;30.20;26.95;;;;;;;-1.20;81.29;95523.03;5089710;28;20490;-61
2023/01/27 10:18:31;;;;;;;46.10;32.25;;;;;;;-1.25;81.78;95525.00;5077171;28;20103;-61
2023/01/27 10:21:14;;;;;;;38.92;33.08;;;;;;;-1.17;81.25;95527.22;5090581;28;20558;-61
2023/01/27 10:23:59;;;;;;;40.60;33.92;;;;;;;-1.16;81.53;95521.97;5090402;28;20020;-61
2023/01/27 10:26:39;;;;;;;85.32;55.05;;;;;;;-1.16;81.36;95528.88;5090911;28;20521;-64
2023/01/27 10:29:23;;;;;;;40.20;30.83;;;;;;;-1.08;81.55;95533.69;5091580;28;20070;-64
2023/01/27 10:32:23;;;;;;;40.50;33.10;;;;;;;-1.06;81.43;95537.03;5091563;28;20046;-65
2023/01/27 10:35:06;;;;;;;66.65;50.50;;;;;;;-1.10;81.09;95538.09;5091458;28;20497;-65
2023/01/27 10:37:54;;;;;;;36.05;29.75;;;;;;;-0.99;80.49;95541.00;5085962;28;20020;-65
2023/01/27 10:40:30;;;;;;;45.40;33.67;;;;;;;-1.09;81.04;95534.59;5089459;28;20044;-64
2023/01/27 10:43:16;;;;;;;51.80;39.20;;;;;;;-0.99;80.49;95533.25;5091222;28;20032;-61
2023/01/27 10:46:15;;;;;;;40.03;31.27;;;;;;;-0.90;79.68;95539.69;5091117;28;20073;-60
2023/01/27 10:48:54;;;;;;;37.08;30.30;;;;;;;-0.85;79.35;95529.13;5091156;28;20020;-60
2023/01/27 10:51:27;;;;;;;32.55;28.25;;;;;;;-0.91;79.18;95535.44;5091242;28;20521;-61
2023/01/27 10:54:01;;;;;;;34.70;29.77;;;;;;;-0.94;79.82;95531.28;5081273;28;20236;-61
2023/01/27 10:56:59;;;;;;;37.55;30.85;;;;;;;-0.99;79.78;95529.81;5091091;28;20024;-61
2023/01/27 10:59:36;;;;;;;45.95;36.13;;;;;;;-1.02;79.38;95528.19;5063664;28;20111;-60
2023/01/27 11:02:10;;;;;;;61.42;40.42;;;;;;;-1.01;79.16;95533.31;5090499;28;20031;-69
2023/01/27 11:04:58;;;;;;;45.05;33.97;;;;;;;-1.04;79.22;95538.63;5090365;28;20020;-64
2023/01/27 11:07:24;;;;;;;37.30;30.58;;;;;;;-0.97;79.52;95535.75;5090918;28;20378;-65
2023/01/27 11:09:58;;;;;;;38.25;29.77;;;;;;;-1.09;79.96;95532.00;5090712;28;20019;-66
2023/01/27 11:12:35;;;;;;;40.30;34.55;;;;;;;-1.05;80.67;95541.28;5088481;28;20081;-65
2023/01/27 11:15:19;;;;;;;38.55;32.95;;;;;;;-1.05;81.03;95534.38;5090089;28;20085;-64
2023/01/27 11:17:47;;;;;;;43.58;36.90;;;;;;;-1.12;80.67;95539.91;5090247;28;20032;-66
2023/01/27 11:20:29;;;;;;;44.90;32.72;;;;;;;-1.06;80.13;95524.94;5090410;28;20034;-62
2023/01/27 11:23:12;;;;;;;62.28;42.03;;;;;;;-1.04;78.83;95524.84;5083056;28;20085;-68
2023/01/27 11:25:54;;;;;;;57.70;42.42;;;;;;;-0.93;78.86;95527.78;5087671;28;20030;-61
2023/01/27 11:28:36;;;;;;;33.45;29.48;;;;;;;-0.88;77.66;95527.56;5090473;28;20081;-62
2023/01/27 11:31:36;;;;;;;36.13;32.25;;;;;;;-0.88;77.36;95520.63;5090591;28;20022;-61
2023/01/27 11:34:29;;;;;;;32.88;27.63;;;;;;;-0.90;77.54;95525.03;5096348;28;20027;-61
2023/01/27 11:36:55;;;;;;;31.17;27.10;;;;;;;-0.83;76.77;95528.16;5086809;28;20035;-61
2023/01/27 11:39:20;;;;;;;31.08;27.08;;;;;;;-0.87;77.37;95527.47;5090325;28;20036;-62
2023/01/27 11:41:57;;;;;;;34.45;28.83;;;;;;;-0.87;76.98;95521.47;5070525;28;20043;-70
2023/01/27 11:44:28;;;;;;;32.55;26.23;;;;;;;-0.90;76.93;95531.94;5089360;28;20425;-68
2023/01/27 11:46:54;;;;;;;31.10;25.98;;;;;;;-0.89;77.16;95526.69;5071205;28;20028;-67
2023/01/27 11:49:30;;;;;;;28.75;25.77;;;;;;;-0.94;76.48;95520.06;5089979;28;20028;-67
2023/01/27 11:52:11;;;;;;;30.52;25.50;;;;;;;-0.89;77.63;95518.94;5080340;28;20032;-67
2023/01/27 11:54:46;;;;;;;28.00;23.52;;;;;;;-0.91;76.07;95518.19;5094650;28;20019;-67
2023/01/27 11:57:16;;;;;;;;;;;;;;;-0.79;76.21;95515.88;5091738;28;20039;-67
2023/01/27 11:59:42;;;;;;;28.98;24.77;;;;;;;-0.70;75.98;95512.88;5089326;28;19919;-71
2023/01/27 12:02:07;;;;;;;29.38;25.05;;;;;;;-0.68;75.92;95503.28;5092004;28;20026;-60
2023/01/27 12:04:50;;;;;;;33.75;28.00;;;;;;;-0.76;76.46;95511.41;5089191;28;20020;-61
2023/01/27 12:07:30;;;;;;;43.88;32.15;;;;;;;-0.70;75.94;95504.25;5087428;28;20505;-60
2023/01/27 12:09:55;;;;;;;33.90;28.45;;;;;;;-0.77;75.71;95504.56;5089367;28;20456;-61